createdAt,value
2023-04-09T00:01:07.343Z,33.50
2023-04-09T00:03:34.088Z,33.67
2023-04-09T00:06:00.874Z,33.40
2023-04-09T00:08:27.238Z,32.20
2023-04-09T00:10:54.379Z,32.37
2023-04-09T00:13:35.664Z,33.57
2023-04-09T00:16:05.712Z,31.70
2023-04-09T00:18:32.261Z,32.50
2023-04-09T00:20:58.659Z,31.30
2023-04-09T00:23:25.411Z,31.87
2023-04-09T00:25:51.854Z,31.47
2023-04-09T00:28:18.213Z,33.53
2023-04-09T00:30:44.610Z,32.73
2023-04-09T00:33:11.001Z,30.43
2023-04-09T00:35:37.426Z,32.07
2023-04-09T00:38:03.867Z,32.30
2023-04-09T00:40:30.381Z,33.30
2023-04-09T00:42:56.981Z,30.40
2023-04-09T00:45:23.399Z,33.47
2023-04-09T00:47:50.087Z,30.93
2023-04-09T00:50:16.941Z,31.87
2023-04-09T00:52:43.437Z,30.87
2023-04-09T00:55:10.454Z,31.77
2023-04-09T00:57:37.514Z,33.17
2023-04-09T01:00:04.708Z,32.57
2023-04-09T01:02:31.356Z,31.70
2023-04-09T01:04:58.027Z,30.57
2023-04-09T01:07:39.507Z,30.03
2023-04-09T01:10:15.051Z,32.50
2023-04-09T01:12:51.337Z,32.80
2023-04-09T01:15:26.272Z,31.10
2023-04-09T01:18:12.217Z,32.23
2023-04-09T01:21:15.331Z,30.17
2023-04-09T01:24:07.538Z,31.77
2023-04-09T01:26:52.120Z,31.10
2023-04-09T01:29:20.427Z,29.90
2023-04-09T01:31:47.667Z,30.70
2023-04-09T01:34:14.516Z,30.93
2023-04-09T01:36:41.963Z,29.50
2023-04-09T01:39:08.892Z,31.13
2023-04-09T01:41:35.879Z,29.47
2023-04-09T01:44:03.464Z,31.13
2023-04-09T01:46:30.222Z,29.43
2023-04-09T01:48:57.091Z,29.43
2023-04-09T01:51:23.564Z,29.93
2023-04-09T01:53:49.938Z,29.67
2023-04-09T01:56:16.383Z,30.10
2023-04-09T01:58:42.773Z,29.57
2023-04-09T02:01:29.732Z,30.87
2023-04-09T02:04:10.517Z,31.77
2023-04-09T02:06:44.742Z,29.37
2023-04-09T02:09:12.554Z,28.70
2023-04-09T02:11:41.705Z,29.90
2023-04-09T02:14:09.266Z,29.47
2023-04-09T02:16:36.414Z,29.87
2023-04-09T02:19:02.965Z,29.27
2023-04-09T02:21:29.764Z,29.87
2023-04-09T02:23:56.375Z,29.57
2023-04-09T02:26:23.146Z,30.23
2023-04-09T02:28:49.580Z,27.83
2023-04-09T02:31:16.759Z,28.13
2023-04-09T02:33:43.317Z,27.77
2023-04-09T02:36:13.235Z,29.07
2023-04-09T02:38:42.836Z,29.70
2023-04-09T02:41:09.475Z,28.73
2023-04-09T02:43:35.958Z,30.23
2023-04-09T02:46:02.678Z,27.20
2023-04-09T02:48:29.091Z,27.93
2023-04-09T02:50:55.576Z,27.37
2023-04-09T02:53:22.128Z,28.73
2023-04-09T02:55:48.618Z,28.83
2023-04-09T02:58:15.268Z,28.23
2023-04-09T03:00:41.782Z,28.90
2023-04-09T03:03:08.381Z,27.23
2023-04-09T03:05:36.102Z,27.70
2023-04-09T03:08:02.502Z,28.57
2023-04-09T03:10:28.883Z,28.93
2023-04-09T03:12:55.305Z,27.37
2023-04-09T03:15:21.669Z,27.03
2023-04-09T03:17:48.082Z,27.00
2023-04-09T03:20:14.614Z,28.90
2023-04-09T03:22:41.020Z,26.57
2023-04-09T03:25:07.790Z,24.97
2023-04-09T03:27:34.186Z,25.83
2023-04-09T03:30:00.646Z,27.63
2023-04-09T03:32:27.101Z,25.83
2023-04-09T03:34:53.519Z,26.17
2023-04-09T03:37:19.926Z,25.60
2023-04-09T03:39:46.349Z,26.23
2023-04-09T03:42:12.722Z,25.23
2023-04-09T03:44:39.077Z,24.77
2023-04-09T03:47:05.474Z,25.20
2023-04-09T03:49:31.857Z,24.53
2023-04-09T03:51:58.261Z,24.70
2023-04-09T03:54:24.628Z,22.87
2023-04-09T03:56:51.033Z,22.47
2023-04-09T03:59:17.415Z,24.87
2023-04-09T04:01:44.226Z,24.63
2023-04-09T04:04:10.881Z,22.83
2023-04-09T04:06:37.326Z,21.43
2023-04-09T04:09:03.749Z,23.40
2023-04-09T04:11:30.297Z,23.90
2023-04-09T04:13:56.852Z,23.37
2023-04-09T04:16:23.375Z,21.43
2023-04-09T04:18:50.160Z,22.07
2023-04-09T04:21:17.263Z,21.63
2023-04-09T04:23:43.663Z,21.53
2023-04-09T04:26:10.860Z,21.17
2023-04-09T04:28:40.705Z,21.47
2023-04-09T04:31:11.257Z,21.93
2023-04-09T04:33:38.575Z,21.97
2023-04-09T04:36:10.643Z,20.40
2023-04-09T04:38:37.440Z,21.93
2023-04-09T04:41:04.023Z,20.90
2023-04-09T04:43:30.632Z,20.40
2023-04-09T04:45:57.086Z,21.97
2023-04-09T04:48:23.644Z,21.43
2023-04-09T04:51:00.309Z,21.03
2023-04-09T04:53:27.102Z,20.77
2023-04-09T04:55:53.924Z,21.70
2023-04-09T04:58:20.444Z,21.87
2023-04-09T05:00:47.159Z,20.63
2023-04-09T05:03:14.478Z,21.50
2023-04-09T05:05:41.037Z,21.13
2023-04-09T05:08:07.794Z,21.83
2023-04-09T05:10:34.161Z,21.83
2023-04-09T05:13:00.733Z,21.97
2023-04-09T05:15:27.190Z,20.73
2023-04-09T05:17:54.182Z,20.57
2023-04-09T05:20:20.795Z,20.83
2023-04-09T05:22:47.244Z,19.83
2023-04-09T05:25:16.099Z,20.80
2023-04-09T05:27:42.806Z,19.80
2023-04-09T05:30:09.501Z,20.47
2023-04-09T05:32:36.037Z,20.33
2023-04-09T05:35:02.468Z,20.57
2023-04-09T05:37:28.972Z,20.57
2023-04-09T05:39:56.256Z,21.23
2023-04-09T05:42:22.789Z,20.40
2023-04-09T05:44:49.174Z,20.93
2023-04-09T05:47:15.714Z,19.70
2023-04-09T05:49:42.211Z,18.93
2023-04-09T05:52:08.613Z,19.70
2023-04-09T05:54:35.580Z,19.03
2023-04-09T05:57:02.007Z,21.60
2023-04-09T05:59:28.383Z,20.63
2023-04-09T06:01:54.833Z,20.50
2023-04-09T06:04:21.552Z,19.67
2023-04-09T06:06:48.213Z,20.37
2023-04-09T06:09:14.752Z,21.13
2023-04-09T06:11:41.134Z,21.40
2023-04-09T06:14:07.700Z,21.87
2023-04-09T06:16:34.852Z,20.67
2023-04-09T06:19:01.258Z,21.67
2023-04-09T06:21:27.944Z,21.27
2023-04-09T06:23:54.688Z,21.67
2023-04-09T06:26:21.497Z,21.17
2023-04-09T06:28:47.895Z,20.53
2023-04-09T06:31:14.341Z,20.07
2023-04-09T06:33:41.247Z,20.83
2023-04-09T06:36:08.080Z,19.30
2023-04-09T06:38:34.555Z,19.37
2023-04-09T06:41:01.355Z,19.00
2023-04-09T06:43:27.896Z,18.83
2023-04-09T06:45:54.297Z,18.57
2023-04-09T06:48:20.782Z,18.10
2023-04-09T06:50:47.330Z,18.77
2023-04-09T06:53:15.018Z,17.40
2023-04-09T06:55:42.015Z,16.37
2023-04-09T06:58:08.478Z,17.67
2023-04-09T07:00:34.931Z,18.03
2023-04-09T07:03:01.642Z,18.33
2023-04-09T07:05:28.225Z,17.83
2023-04-09T07:07:54.672Z,17.53
2023-04-09T07:10:21.088Z,17.47
2023-04-09T07:12:47.567Z,16.97
2023-04-09T07:15:13.972Z,17.60
2023-04-09T07:17:41.014Z,18.20
2023-04-09T07:20:07.737Z,17.17
2023-04-09T07:22:34.095Z,17.13
2023-04-09T07:25:00.676Z,18.27
2023-04-09T07:27:27.811Z,17.87
2023-04-09T07:29:56.026Z,17.40
2023-04-09T07:32:23.182Z,16.97
2023-04-09T07:34:52.740Z,18.17
2023-04-09T07:37:19.545Z,18.63
2023-04-09T07:39:46.848Z,17.43
2023-04-09T07:42:13.719Z,16.00
2023-04-09T07:44:40.864Z,17.83
2023-04-09T07:47:08.005Z,17.77
2023-04-09T07:49:36.222Z,17.33
2023-04-09T07:52:02.632Z,17.60
2023-04-09T07:54:28.996Z,19.27
2023-04-09T07:56:56.311Z,18.40
2023-04-09T07:59:22.872Z,17.80
2023-04-09T08:01:49.335Z,16.60
2023-04-09T08:04:16.258Z,16.47
2023-04-09T08:06:42.736Z,17.47
2023-04-09T11:14:37.793Z,15.10
2023-04-09T11:17:04.374Z,15.23
2023-04-09T11:19:34.825Z,15.40
2023-04-09T11:22:04.813Z,16.13
2023-04-09T11:24:43.514Z,14.53
2023-04-09T11:27:10.134Z,14.07
2023-04-09T11:29:36.787Z,14.70
2023-04-09T11:32:05.435Z,15.67
2023-04-09T11:34:32.237Z,14.80
2023-04-09T11:36:59.707Z,15.13
2023-04-09T11:39:26.453Z,14.00
2023-04-09T11:41:53.265Z,14.43
2023-04-09T11:44:21.630Z,13.27
2023-04-09T11:46:49.171Z,14.17
2023-04-09T11:49:17.557Z,13.13
2023-04-09T11:51:44.131Z,14.03
2023-04-09T11:54:12.088Z,13.90
2023-04-09T11:56:38.479Z,14.60
2023-04-09T11:59:04.915Z,15.00
2023-04-09T12:01:34.685Z,14.27
2023-04-09T12:04:01.569Z,15.67
2023-04-09T12:06:28.517Z,14.57
2023-04-09T12:08:58.428Z,13.80
2023-04-09T12:11:29.356Z,13.30
2023-04-09T12:14:03.125Z,13.00
2023-04-09T12:16:35.744Z,13.70
2023-04-09T12:19:03.550Z,13.63
2023-04-09T12:21:54.529Z,13.70
2023-04-09T12:24:23.089Z,13.37
2023-04-09T12:26:49.742Z,12.90
2023-04-09T12:29:18.112Z,11.17
2023-04-09T12:31:45.329Z,12.43
2023-04-09T12:34:12.013Z,12.33
2023-04-09T12:36:39.798Z,11.50
2023-04-09T12:39:06.466Z,12.23
2023-04-09T12:41:32.858Z,12.43
2023-04-09T12:43:59.432Z,11.57
2023-04-09T12:46:27.204Z,10.97
2023-04-09T12:48:53.933Z,10.57
2023-04-09T12:51:20.686Z,11.63
2023-04-09T12:53:47.124Z,11.30
2023-04-09T12:56:13.556Z,11.00
2023-04-09T12:58:39.934Z,8.80
2023-04-09T13:01:06.619Z,8.90
2023-04-09T13:03:33.318Z,11.03
2023-04-09T13:05:59.842Z,8.27
2023-04-09T13:08:26.285Z,7.60
2023-04-09T13:10:52.716Z,6.87
2023-04-09T13:13:19.132Z,7.37
2023-04-09T13:15:46.214Z,9.50
2023-04-09T13:18:13.432Z,10.57
2023-04-09T13:20:40.245Z,11.23
2023-04-09T13:23:06.730Z,11.03
2023-04-09T13:25:33.224Z,11.10
2023-04-09T13:27:59.596Z,10.67
2023-04-09T13:30:26.069Z,10.53
2023-04-09T13:32:52.629Z,10.47
2023-04-09T13:35:19.197Z,10.73
2023-04-09T13:37:45.717Z,10.50
2023-04-09T13:40:12.401Z,10.47
2023-04-09T13:42:38.792Z,9.73
2023-04-09T13:45:05.943Z,9.90
2023-04-09T13:47:32.501Z,10.37
2023-04-09T13:49:58.925Z,11.07
2023-04-09T13:52:26.772Z,10.20
2023-04-09T13:54:56.475Z,10.80
2023-04-09T13:57:22.821Z,10.40
2023-04-09T14:14:30.192Z,10.60
2023-04-09T17:35:14.281Z,19.07
2023-04-09T17:37:40.715Z,18.60
2023-04-09T17:40:07.736Z,19.23
2023-04-09T17:42:34.162Z,18.83
2023-04-09T17:45:00.811Z,18.40
2023-04-09T17:47:27.311Z,18.23
2023-04-09T17:49:53.850Z,18.30
